Weather at Monteagudo Airport

Public forecast

Using degrees Celsius for public forecast. Weather courtesy of forecast.io.

Current aviation weather report (METAR) for Monteagudo Airport

Report is more than 6 hours old.

Retrieved 2020/10/30 15:00 UTC (30 days ago):

SLAG 301500Z 20005KT 9999 FEW015 SCT070 21/07 Q1023

Closest aviation forecast (TAF) to Monteagudo Airport

Closest forecast is Alcantarí Airport, 75.7 nm (140.3 km) WNW. Retrieved 2020-11-29 00:53 UTC (3 hours ago):

TAF SLAL 282250Z 2900/2924 00000KT 9999 SCT020 TX22/2919Z TN10/2910Z BECMG 2915/2917 02015KT